sensor_id;sensor_type;location;lat;lon;timestamp;temperature;humidity
51035;DHT22;37062;52.546;13.230;2023-03-26T00:02:26;11.20;99.90
51035;DHT22;37062;52.546;13.230;2023-03-26T00:04:55;11.30;99.90
51035;DHT22;37062;52.546;13.230;2023-03-26T00:07:23;11.20;99.90
51035;DHT22;37062;52.546;13.230;2023-03-26T00:09:53;11.20;99.90
51035;DHT22;37062;52.546;13.230;2023-03-26T00:12:24;11.10;99.90
51035;DHT22;37062;52.546;13.230;2023-03-26T00:14:52;11.10;99.90
51035;DHT22;37062;52.546;13.230;2023-03-26T00:17:21;11.10;99.90
51035;DHT22;37062;52.546;13.230;2023-03-26T00:19:50;11.20;99.90
51035;DHT22;37062;52.546;13.230;2023-03-26T00:22:19;11.20;99.90
51035;DHT22;37062;52.546;13.230;2023-03-26T00:24:49;11.10;99.90
51035;DHT22;37062;52.546;13.230;2023-03-26T00:27:17;11.10;99.90
51035;DHT22;37062;52.546;13.230;2023-03-26T00:29:46;11.10;99.90
51035;DHT22;37062;52.546;13.230;2023-03-26T00:32:14;11.10;99.90
51035;DHT22;37062;52.546;13.230;2023-03-26T00:34:44;11.10;99.90
51035;DHT22;37062;52.546;13.230;2023-03-26T00:37:12;11.10;99.90
51035;DHT22;37062;52.546;13.230;2023-03-26T00:39:41;11.20;99.90
51035;DHT22;37062;52.546;13.230;2023-03-26T00:42:10;11.20;99.90
51035;DHT22;37062;52.546;13.230;2023-03-26T00:44:40;11.20;99.90
51035;DHT22;37062;52.546;13.230;2023-03-26T00:47:09;11.30;99.90
51035;DHT22;37062;52.546;13.230;2023-03-26T00:49:39;11.30;99.90
51035;DHT22;37062;52.546;13.230;2023-03-26T00:52:09;11.30;99.90
51035;DHT22;37062;52.546;13.230;2023-03-26T00:54:37;11.20;99.90
51035;DHT22;37062;52.546;13.230;2023-03-26T00:57:06;11.20;99.90
51035;DHT22;37062;52.546;13.230;2023-03-26T00:59:37;11.30;99.90
51035;DHT22;37062;52.546;13.230;2023-03-26T01:02:05;11.20;99.90
51035;DHT22;37062;52.546;13.230;2023-03-26T01:04:36;11.20;99.90
51035;DHT22;37062;52.546;13.230;2023-03-26T01:07:11;11.20;99.90
51035;DHT22;37062;52.546;13.230;2023-03-26T01:09:42;11.10;99.90
51035;DHT22;37062;52.546;13.230;2023-03-26T01:12:13;11.10;99.90
51035;DHT22;37062;52.546;13.230;2023-03-26T01:14:43;11.10;99.90
51035;DHT22;37062;52.546;13.230;2023-03-26T01:17:12;11.00;99.90
51035;DHT22;37062;52.546;13.230;2023-03-26T01:19:46;11.00;99.90
51035;DHT22;37062;52.546;13.230;2023-03-26T01:22:18;10.90;99.90
51035;DHT22;37062;52.546;13.230;2023-03-26T01:24:48;10.90;99.90
51035;DHT22;37062;52.546;13.230;2023-03-26T01:27:34;10.90;99.90
51035;DHT22;37062;52.546;13.230;2023-03-26T01:30:12;10.90;99.90
51035;DHT22;37062;52.546;13.230;2023-03-26T01:32:56;10.90;99.90
51035;DHT22;37062;52.546;13.230;2023-03-26T01:35:36;10.90;99.90
51035;DHT22;37062;52.546;13.230;2023-03-26T01:38:22;10.90;99.90
51035;DHT22;37062;52.546;13.230;2023-03-26T01:40:59;10.80;99.90
51035;DHT22;37062;52.546;13.230;2023-03-26T01:43:35;10.80;99.90
51035;DHT22;37062;52.546;13.230;2023-03-26T01:46:07;10.90;99.90
51035;DHT22;37062;52.546;13.230;2023-03-26T01:48:38;10.90;99.90
51035;DHT22;37062;52.546;13.230;2023-03-26T01:51:09;10.90;99.90
51035;DHT22;37062;52.546;13.230;2023-03-26T01:53:41;10.90;99.90
51035;DHT22;37062;52.546;13.230;2023-03-26T01:56:15;10.90;99.90
51035;DHT22;37062;52.546;13.230;2023-03-26T01:58:59;10.90;99.90
51035;DHT22;37062;52.546;13.230;2023-03-26T02:01:36;10.90;99.90
51035;DHT22;37062;52.546;13.230;2023-03-26T02:04:18;10.90;99.90
51035;DHT22;37062;52.546;13.230;2023-03-26T02:06:52;10.90;99.90
51035;DHT22;37062;52.546;13.230;2023-03-26T02:09:28;10.90;99.90
51035;DHT22;37062;52.546;13.230;2023-03-26T02:12:00;10.90;99.90
51035;DHT22;37062;52.546;13.230;2023-03-26T02:14:31;10.80;99.90
51035;DHT22;37062;52.546;13.230;2023-03-26T02:17:00;10.90;99.90
51035;DHT22;37062;52.546;13.230;2023-03-26T02:19:28;10.90;99.90
51035;DHT22;37062;52.546;13.230;2023-03-26T02:21:56;10.90;99.90
51035;DHT22;37062;52.546;13.230;2023-03-26T02:24:29;10.80;99.90
51035;DHT22;37062;52.546;13.230;2023-03-26T02:26:59;10.80;99.90
51035;DHT22;37062;52.546;13.230;2023-03-26T02:29:28;10.70;99.90
51035;DHT22;37062;52.546;13.230;2023-03-26T02:31:57;10.60;99.90
51035;DHT22;37062;52.546;13.230;2023-03-26T02:34:25;10.60;99.90
51035;DHT22;37062;52.546;13.230;2023-03-26T02:36:54;10.60;99.90
51035;DHT22;37062;52.546;13.230;2023-03-26T02:39:23;10.50;99.90
51035;DHT22;37062;52.546;13.230;2023-03-26T02:41:56;10.50;99.90
51035;DHT22;37062;52.546;13.230;2023-03-26T02:44:27;10.40;99.90
51035;DHT22;37062;52.546;13.230;2023-03-26T02:46:58;10.40;99.90
51035;DHT22;37062;52.546;13.230;2023-03-26T02:49:47;10.40;99.90
51035;DHT22;37062;52.546;13.230;2023-03-26T02:52:22;10.30;99.90
51035;DHT22;37062;52.546;13.230;2023-03-26T02:54:54;10.30;99.90
51035;DHT22;37062;52.546;13.230;2023-03-26T02:57:24;10.40;99.90
51035;DHT22;37062;52.546;13.230;2023-03-26T03:00:09;10.40;99.90
51035;DHT22;37062;52.546;13.230;2023-03-26T03:02:49;10.50;99.90
51035;DHT22;37062;52.546;13.230;2023-03-26T03:05:19;10.50;99.90
51035;DHT22;37062;52.546;13.230;2023-03-26T03:08:13;10.50;99.90
51035;DHT22;37062;52.546;13.230;2023-03-26T03:11:08;10.40;99.90
51035;DHT22;37062;52.546;13.230;2023-03-26T03:13:46;10.40;99.90
51035;DHT22;37062;52.546;13.230;2023-03-26T03:16:20;10.40;99.90
51035;DHT22;37062;52.546;13.230;2023-03-26T03:18:49;10.50;99.90
51035;DHT22;37062;52.546;13.230;2023-03-26T03:21:28;10.50;99.90
51035;DHT22;37062;52.546;13.230;2023-03-26T03:23:57;10.60;99.90
51035;DHT22;37062;52.546;13.230;2023-03-26T03:26:30;10.60;99.90
51035;DHT22;37062;52.546;13.230;2023-03-26T03:29:11;10.60;99.90
51035;DHT22;37062;52.546;13.230;2023-03-26T03:31:42;10.60;99.90
51035;DHT22;37062;52.546;13.230;2023-03-26T03:34:23;10.60;99.90
51035;DHT22;37062;52.546;13.230;2023-03-26T03:36:51;10.60;99.90
51035;DHT22;37062;52.546;13.230;2023-03-26T03:39:34;10.60;99.90
51035;DHT22;37062;52.546;13.230;2023-03-26T03:42:03;10.60;99.90
51035;DHT22;37062;52.546;13.230;2023-03-26T03:44:32;10.70;99.90
51035;DHT22;37062;52.546;13.230;2023-03-26T03:47:06;10.60;99.90
51035;DHT22;37062;52.546;13.230;2023-03-26T03:49:39;10.60;99.90
51035;DHT22;37062;52.546;13.230;2023-03-26T03:52:07;10.60;99.90
51035;DHT22;37062;52.546;13.230;2023-03-26T03:54:39;10.70;99.90
51035;DHT22;37062;52.546;13.230;2023-03-26T03:57:19;10.70;99.90
51035;DHT22;37062;52.546;13.230;2023-03-26T03:59:57;10.70;99.90
51035;DHT22;37062;52.546;13.230;2023-03-26T04:02:31;10.70;99.90
51035;DHT22;37062;52.546;13.230;2023-03-26T04:05:05;10.70;99.90
51035;DHT22;37062;52.546;13.230;2023-03-26T04:07:37;10.70;99.90
51035;DHT22;37062;52.546;13.230;2023-03-26T04:10:25;10.70;99.90
51035;DHT22;37062;52.546;13.230;2023-03-26T04:13:13;10.70;99.90
51035;DHT22;37062;52.546;13.230;2023-03-26T04:16:03;10.70;99.90
51035;DHT22;37062;52.546;13.230;2023-03-26T04:18:34;10.70;99.90
51035;DHT22;37062;52.546;13.230;2023-03-26T04:21:10;10.70;99.90
51035;DHT22;37062;52.546;13.230;2023-03-26T04:23:42;10.70;99.90
51035;DHT22;37062;52.546;13.230;2023-03-26T04:26:31;10.70;99.90
51035;DHT22;37062;52.546;13.230;2023-03-26T04:29:09;10.70;99.90
51035;DHT22;37062;52.546;13.230;2023-03-26T04:31:44;10.70;99.90
51035;DHT22;37062;52.546;13.230;2023-03-26T04:34:19;10.60;99.90
51035;DHT22;37062;52.546;13.230;2023-03-26T04:37:00;10.60;99.90
51035;DHT22;37062;52.546;13.230;2023-03-26T04:39:32;10.60;99.90
51035;DHT22;37062;52.546;13.230;2023-03-26T04:42:20;10.60;99.90
51035;DHT22;37062;52.546;13.230;2023-03-26T04:45:04;10.50;99.90
51035;DHT22;37062;52.546;13.230;2023-03-26T04:47:33;10.50;99.90
51035;DHT22;37062;52.546;13.230;2023-03-26T04:50:06;10.50;99.90
51035;DHT22;37062;52.546;13.230;2023-03-26T04:52:36;10.50;99.90
51035;DHT22;37062;52.546;13.230;2023-03-26T04:55:18;10.50;99.90
51035;DHT22;37062;52.546;13.230;2023-03-26T04:57:57;10.50;99.90
51035;DHT22;37062;52.546;13.230;2023-03-26T05:00:51;10.60;99.90
51035;DHT22;37062;52.546;13.230;2023-03-26T05:03:20;10.60;99.90
51035;DHT22;37062;52.546;13.230;2023-03-26T05:05:50;10.60;99.90
51035;DHT22;37062;52.546;13.230;2023-03-26T05:08:18;10.70;99.90
51035;DHT22;37062;52.546;13.230;2023-03-26T05:10:46;10.70;99.90
51035;DHT22;37062;52.546;13.230;2023-03-26T05:13:22;10.70;99.90
51035;DHT22;37062;52.546;13.230;2023-03-26T05:15:54;10.70;99.90
51035;DHT22;37062;52.546;13.230;2023-03-26T05:18:45;10.70;99.90
51035;DHT22;37062;52.546;13.230;2023-03-26T05:21:15;10.70;99.90
51035;DHT22;37062;52.546;13.230;2023-03-26T05:23:43;10.70;99.90
51035;DHT22;37062;52.546;13.230;2023-03-26T05:26:17;10.70;99.90
51035;DHT22;37062;52.546;13.230;2023-03-26T05:28:47;10.70;99.90
51035;DHT22;37062;52.546;13.230;2023-03-26T05:31:41;10.70;99.90
51035;DHT22;37062;52.546;13.230;2023-03-26T05:34:10;10.80;99.90
51035;DHT22;37062;52.546;13.230;2023-03-26T05:36:40;10.80;99.90
51035;DHT22;37062;52.546;13.230;2023-03-26T05:39:43;10.90;99.90
51035;DHT22;37062;52.546;13.230;2023-03-26T05:42:39;10.80;99.90
51035;DHT22;37062;52.546;13.230;2023-03-26T05:45:28;10.80;99.90
51035;DHT22;37062;52.546;13.230;2023-03-26T05:48:00;10.70;99.90
51035;DHT22;37062;52.546;13.230;2023-03-26T05:50:28;10.70;99.90
51035;DHT22;37062;52.546;13.230;2023-03-26T05:53:00;10.80;99.90
51035;DHT22;37062;52.546;13.230;2023-03-26T05:55:48;10.70;99.90
51035;DHT22;37062;52.546;13.230;2023-03-26T05:58:42;10.80;99.90
51035;DHT22;37062;52.546;13.230;2023-03-26T06:01:22;10.80;99.90
51035;DHT22;37062;52.546;13.230;2023-03-26T06:04:11;10.80;99.90
51035;DHT22;37062;52.546;13.230;2023-03-26T06:06:52;10.80;99.90
51035;DHT22;37062;52.546;13.230;2023-03-26T06:09:22;10.90;99.90
51035;DHT22;37062;52.546;13.230;2023-03-26T06:11:50;10.90;99.90
51035;DHT22;37062;52.546;13.230;2023-03-26T06:14:23;10.90;99.90
51035;DHT22;37062;52.546;13.230;2023-03-26T06:17:15;11.00;99.90
51035;DHT22;37062;52.546;13.230;2023-03-26T06:20:19;11.00;99.90
51035;DHT22;37062;52.546;13.230;2023-03-26T06:22:50;10.90;99.90
51035;DHT22;37062;52.546;13.230;2023-03-26T06:25:22;10.80;99.90
51035;DHT22;37062;52.546;13.230;2023-03-26T06:27:58;10.70;99.90
51035;DHT22;37062;52.546;13.230;2023-03-26T06:30:49;10.80;99.90
51035;DHT22;37062;52.546;13.230;2023-03-26T06:33:39;10.90;99.90
51035;DHT22;37062;52.546;13.230;2023-03-26T06:36:10;11.00;99.90
51035;DHT22;37062;52.546;13.230;2023-03-26T06:38:39;11.00;99.90
51035;DHT22;37062;52.546;13.230;2023-03-26T06:41:09;11.00;99.90
51035;DHT22;37062;52.546;13.230;2023-03-26T06:44:10;11.10;99.90
51035;DHT22;37062;52.546;13.230;2023-03-26T06:47:11;11.10;99.90
51035;DHT22;37062;52.546;13.230;2023-03-26T06:49:58;11.30;99.90
51035;DHT22;37062;52.546;13.230;2023-03-26T06:52:29;11.50;99.90
51035;DHT22;37062;52.546;13.230;2023-03-26T06:55:12;11.70;99.90
51035;DHT22;37062;52.546;13.230;2023-03-26T06:58:01;11.90;99.90
51035;DHT22;37062;52.546;13.230;2023-03-26T07:00:58;12.30;99.90
51035;DHT22;37062;52.546;13.230;2023-03-26T07:03:47;12.50;99.90
51035;DHT22;37062;52.546;13.230;2023-03-26T07:06:33;12.60;99.90
51035;DHT22;37062;52.546;13.230;2023-03-26T07:09:20;12.90;99.90
51035;DHT22;37062;52.546;13.230;2023-03-26T07:12:20;13.10;99.90
51035;DHT22;37062;52.546;13.230;2023-03-26T07:15:19;13.30;99.90
51035;DHT22;37062;52.546;13.230;2023-03-26T07:18:05;13.70;99.90
51035;DHT22;37062;52.546;13.230;2023-03-26T07:20:36;13.80;99.90
51035;DHT22;37062;52.546;13.230;2023-03-26T07:23:05;13.80;99.90
51035;DHT22;37062;52.546;13.230;2023-03-26T07:25:52;13.50;99.90
51035;DHT22;37062;52.546;13.230;2023-03-26T07:28:45;13.40;99.90
51035;DHT22;37062;52.546;13.230;2023-03-26T07:31:45;13.30;99.90
51035;DHT22;37062;52.546;13.230;2023-03-26T07:34:37;13.20;99.90
51035;DHT22;37062;52.546;13.230;2023-03-26T07:37:42;13.20;99.90
51035;DHT22;37062;52.546;13.230;2023-03-26T07:40:45;13.10;99.90
51035;DHT22;37062;52.546;13.230;2023-03-26T07:43:50;13.00;99.90
51035;DHT22;37062;52.546;13.230;2023-03-26T07:46:47;12.90;99.90
51035;DHT22;37062;52.546;13.230;2023-03-26T07:49:32;12.80;99.90
51035;DHT22;37062;52.546;13.230;2023-03-26T07:52:18;12.80;99.90
51035;DHT22;37062;52.546;13.230;2023-03-26T07:54:55;12.70;99.90
51035;DHT22;37062;52.546;13.230;2023-03-26T07:57:51;12.70;99.90
51035;DHT22;37062;52.546;13.230;2023-03-26T08:00:32;12.70;99.90
51035;DHT22;37062;52.546;13.230;2023-03-26T08:03:15;12.70;99.90
51035;DHT22;37062;52.546;13.230;2023-03-26T08:06:02;12.70;99.90
51035;DHT22;37062;52.546;13.230;2023-03-26T08:08:48;12.70;99.90
51035;DHT22;37062;52.546;13.230;2023-03-26T08:11:39;12.80;99.90
51035;DHT22;37062;52.546;13.230;2023-03-26T08:14:30;12.80;99.90
51035;DHT22;37062;52.546;13.230;2023-03-26T08:17:06;12.80;99.90
51035;DHT22;37062;52.546;13.230;2023-03-26T08:19:44;12.80;99.90
51035;DHT22;37062;52.546;13.230;2023-03-26T08:22:18;12.80;99.90
51035;DHT22;37062;52.546;13.230;2023-03-26T08:25:05;12.80;99.90
51035;DHT22;37062;52.546;13.230;2023-03-26T08:27:38;12.80;99.90
51035;DHT22;37062;52.546;13.230;2023-03-26T08:30:11;12.70;99.90
51035;DHT22;37062;52.546;13.230;2023-03-26T08:32:48;12.80;99.90
51035;DHT22;37062;52.546;13.230;2023-03-26T08:35:18;12.70;99.90
51035;DHT22;37062;52.546;13.230;2023-03-26T08:37:46;12.70;99.90
51035;DHT22;37062;52.546;13.230;2023-03-26T08:40:21;12.60;99.90
51035;DHT22;37062;52.546;13.230;2023-03-26T08:43:30;12.60;99.90
51035;DHT22;37062;52.546;13.230;2023-03-26T08:46:33;12.60;99.90
51035;DHT22;37062;52.546;13.230;2023-03-26T08:49:43;12.60;99.90
51035;DHT22;37062;52.546;13.230;2023-03-26T08:52:56;12.70;99.90
51035;DHT22;37062;52.546;13.230;2023-03-26T08:55:43;12.80;99.90
51035;DHT22;37062;52.546;13.230;2023-03-26T09:04:56;12.90;99.90
51035;DHT22;37062;52.546;13.230;2023-03-26T09:10:53;12.80;99.90
51035;DHT22;37062;52.546;13.230;2023-03-26T09:14:03;12.80;99.90
51035;DHT22;37062;52.546;13.230;2023-03-26T09:23:08;12.00;99.90
51035;DHT22;37062;52.546;13.230;2023-03-26T09:29:10;10.70;99.90
51035;DHT22;37062;52.546;13.230;2023-03-26T09:35:09;10.30;99.90
51035;DHT22;37062;52.546;13.230;2023-03-26T09:38:04;10.20;99.90
51035;DHT22;37062;52.546;13.230;2023-03-26T09:40:44;10.20;99.90
51035;DHT22;37062;52.546;13.230;2023-03-26T09:46:44;9.90;99.90
51035;DHT22;37062;52.546;13.230;2023-03-26T09:49:22;9.70;99.90
51035;DHT22;37062;52.546;13.230;2023-03-26T09:58:27;10.00;99.90
51035;DHT22;37062;52.546;13.230;2023-03-26T10:01:06;10.10;99.90
51035;DHT22;37062;52.546;13.230;2023-03-26T10:03:46;10.10;99.90
51035;DHT22;37062;52.546;13.230;2023-03-26T10:06:32;10.10;99.90
51035;DHT22;37062;52.546;13.230;2023-03-26T10:09:36;10.30;99.90
51035;DHT22;37062;52.546;13.230;2023-03-26T10:12:18;10.50;99.90
51035;DHT22;37062;52.546;13.230;2023-03-26T10:15:17;10.90;99.90
51035;DHT22;37062;52.546;13.230;2023-03-26T10:17:59;11.10;99.90
51035;DHT22;37062;52.546;13.230;2023-03-26T10:20:57;11.30;99.90
51035;DHT22;37062;52.546;13.230;2023-03-26T10:24:01;11.20;99.90
51035;DHT22;37062;52.546;13.230;2023-03-26T10:26:40;11.00;99.90
51035;DHT22;37062;52.546;13.230;2023-03-26T10:29:48;11.00;99.90
51035;DHT22;37062;52.546;13.230;2023-03-26T10:32:27;10.90;99.90
51035;DHT22;37062;52.546;13.230;2023-03-26T10:35:10;10.90;99.90
51035;DHT22;37062;52.546;13.230;2023-03-26T10:37:54;11.00;99.90
51035;DHT22;37062;52.546;13.230;2023-03-26T10:40:29;11.20;99.90
51035;DHT22;37062;52.546;13.230;2023-03-26T10:43:16;11.20;99.90
51035;DHT22;37062;52.546;13.230;2023-03-26T10:46:21;11.20;99.90
51035;DHT22;37062;52.546;13.230;2023-03-26T10:49:19;11.30;99.90
51035;DHT22;37062;52.546;13.230;2023-03-26T10:51:54;11.60;99.90
51035;DHT22;37062;52.546;13.230;2023-03-26T10:54:41;11.80;99.90
51035;DHT22;37062;52.546;13.230;2023-03-26T10:57:26;12.00;99.90
51035;DHT22;37062;52.546;13.230;2023-03-26T10:59:57;12.30;99.90
51035;DHT22;37062;52.546;13.230;2023-03-26T11:02:29;12.30;99.90
51035;DHT22;37062;52.546;13.230;2023-03-26T11:05:16;12.50;99.90
51035;DHT22;37062;52.546;13.230;2023-03-26T11:07:51;12.60;99.90
51035;DHT22;37062;52.546;13.230;2023-03-26T11:10:34;12.60;99.90
51035;DHT22;37062;52.546;13.230;2023-03-26T11:13:14;12.60;99.90
51035;DHT22;37062;52.546;13.230;2023-03-26T11:15:48;12.80;99.90
51035;DHT22;37062;52.546;13.230;2023-03-26T11:18:20;13.00;99.90
51035;DHT22;37062;52.546;13.230;2023-03-26T11:21:00;13.20;99.90
51035;DHT22;37062;52.546;13.230;2023-03-26T11:23:55;13.40;99.90
51035;DHT22;37062;52.546;13.230;2023-03-26T11:26:43;13.40;99.90
51035;DHT22;37062;52.546;13.230;2023-03-26T11:29:25;13.20;99.90
51035;DHT22;37062;52.546;13.230;2023-03-26T11:32:03;13.30;99.90
51035;DHT22;37062;52.546;13.230;2023-03-26T11:34:36;13.30;99.90
51035;DHT22;37062;52.546;13.230;2023-03-26T11:37:11;13.50;99.90
51035;DHT22;37062;52.546;13.230;2023-03-26T11:39:48;13.70;99.90
51035;DHT22;37062;52.546;13.230;2023-03-26T11:42:23;13.70;99.90
51035;DHT22;37062;52.546;13.230;2023-03-26T11:44:54;13.90;99.90
51035;DHT22;37062;52.546;13.230;2023-03-26T11:47:29;14.10;99.90
51035;DHT22;37062;52.546;13.230;2023-03-26T11:50:01;14.00;99.90
51035;DHT22;37062;52.546;13.230;2023-03-26T11:52:30;14.10;99.90
51035;DHT22;37062;52.546;13.230;2023-03-26T11:54:58;14.30;99.90
51035;DHT22;37062;52.546;13.230;2023-03-26T11:57:30;14.40;99.90
51035;DHT22;37062;52.546;13.230;2023-03-26T12:00:02;14.50;99.90
51035;DHT22;37062;52.546;13.230;2023-03-26T12:02:40;14.60;99.90
51035;DHT22;37062;52.546;13.230;2023-03-26T12:05:16;14.80;99.90
51035;DHT22;37062;52.546;13.230;2023-03-26T12:07:49;14.90;99.90
51035;DHT22;37062;52.546;13.230;2023-03-26T12:10:28;15.00;99.90
51035;DHT22;37062;52.546;13.230;2023-03-26T12:15:49;15.30;99.90
51035;DHT22;37062;52.546;13.230;2023-03-26T12:18:22;15.30;99.90
51035;DHT22;37062;52.546;13.230;2023-03-26T12:21:02;15.20;99.90
51035;DHT22;37062;52.546;13.230;2023-03-26T12:23:52;14.90;99.90
51035;DHT22;37062;52.546;13.230;2023-03-26T12:26:30;14.80;99.90
51035;DHT22;37062;52.546;13.230;2023-03-26T12:29:07;14.80;99.90
51035;DHT22;37062;52.546;13.230;2023-03-26T12:31:44;14.90;99.90
51035;DHT22;37062;52.546;13.230;2023-03-26T12:34:15;14.90;99.90
51035;DHT22;37062;52.546;13.230;2023-03-26T12:36:52;14.80;99.90
51035;DHT22;37062;52.546;13.230;2023-03-26T12:39:31;14.70;99.90
51035;DHT22;37062;52.546;13.230;2023-03-26T12:42:25;14.70;99.90
51035;DHT22;37062;52.546;13.230;2023-03-26T12:45:15;14.70;99.90
51035;DHT22;37062;52.546;13.230;2023-03-26T12:47:44;14.80;99.90
51035;DHT22;37062;52.546;13.230;2023-03-26T12:50:39;14.90;99.90
51035;DHT22;37062;52.546;13.230;2023-03-26T12:53:22;15.00;99.90
51035;DHT22;37062;52.546;13.230;2023-03-26T12:56:00;15.10;99.90
51035;DHT22;37062;52.546;13.230;2023-03-26T12:58:53;15.10;99.90
51035;DHT22;37062;52.546;13.230;2023-03-26T13:01:30;15.20;99.90
51035;DHT22;37062;52.546;13.230;2023-03-26T13:04:09;15.20;99.90
51035;DHT22;37062;52.546;13.230;2023-03-26T13:06:40;15.30;99.90
51035;DHT22;37062;52.546;13.230;2023-03-26T13:09:54;15.40;99.90
51035;DHT22;37062;52.546;13.230;2023-03-26T13:12:32;15.40;99.90
51035;DHT22;37062;52.546;13.230;2023-03-26T13:15:21;15.50;99.90
51035;DHT22;37062;52.546;13.230;2023-03-26T13:18:06;15.60;99.90
51035;DHT22;37062;52.546;13.230;2023-03-26T13:20:48;15.60;99.90
51035;DHT22;37062;52.546;13.230;2023-03-26T13:23:26;15.60;99.90
51035;DHT22;37062;52.546;13.230;2023-03-26T13:26:04;15.60;99.90
51035;DHT22;37062;52.546;13.230;2023-03-26T13:28:42;15.60;99.90
51035;DHT22;37062;52.546;13.230;2023-03-26T13:31:20;15.60;99.90
51035;DHT22;37062;52.546;13.230;2023-03-26T13:33:58;15.60;99.90
51035;DHT22;37062;52.546;13.230;2023-03-26T13:36:38;15.50;99.90
51035;DHT22;37062;52.546;13.230;2023-03-26T13:39:26;15.60;99.90
51035;DHT22;37062;52.546;13.230;2023-03-26T13:42:14;15.60;99.90
51035;DHT22;37062;52.546;13.230;2023-03-26T13:44:54;15.60;99.90
51035;DHT22;37062;52.546;13.230;2023-03-26T13:47:35;15.60;99.90
51035;DHT22;37062;52.546;13.230;2023-03-26T13:50:14;15.50;99.90
51035;DHT22;37062;52.546;13.230;2023-03-26T13:52:48;15.60;99.90
51035;DHT22;37062;52.546;13.230;2023-03-26T13:55:24;15.60;99.90
51035;DHT22;37062;52.546;13.230;2023-03-26T13:57:59;15.70;99.90
51035;DHT22;37062;52.546;13.230;2023-03-26T14:00:46;15.60;99.90
51035;DHT22;37062;52.546;13.230;2023-03-26T14:03:20;15.20;99.90
51035;DHT22;37062;52.546;13.230;2023-03-26T14:05:54;15.00;99.90
51035;DHT22;37062;52.546;13.230;2023-03-26T14:08:28;14.90;99.90
51035;DHT22;37062;52.546;13.230;2023-03-26T14:11:03;14.80;99.90
51035;DHT22;37062;52.546;13.230;2023-03-26T14:13:48;14.80;99.90
51035;DHT22;37062;52.546;13.230;2023-03-26T14:16:22;15.00;99.90
51035;DHT22;37062;52.546;13.230;2023-03-26T14:18:57;15.20;99.90
51035;DHT22;37062;52.546;13.230;2023-03-26T14:21:51;15.30;99.90
51035;DHT22;37062;52.546;13.230;2023-03-26T14:24:52;15.10;99.90
51035;DHT22;37062;52.546;13.230;2023-03-26T14:27:36;15.10;99.90
51035;DHT22;37062;52.546;13.230;2023-03-26T14:33:25;14.80;99.90
51035;DHT22;37062;52.546;13.230;2023-03-26T14:36:06;14.80;99.90
51035;DHT22;37062;52.546;13.230;2023-03-26T14:38:59;14.90;99.90
51035;DHT22;37062;52.546;13.230;2023-03-26T14:41:43;14.90;99.90
51035;DHT22;37062;52.546;13.230;2023-03-26T14:44:37;14.80;99.90
51035;DHT22;37062;52.546;13.230;2023-03-26T14:47:16;14.80;99.90
51035;DHT22;37062;52.546;13.230;2023-03-26T14:50:23;14.80;99.90
51035;DHT22;37062;52.546;13.230;2023-03-26T14:52:54;14.60;99.90
51035;DHT22;37062;52.546;13.230;2023-03-26T14:55:44;14.40;99.90
51035;DHT22;37062;52.546;13.230;2023-03-26T15:01:21;13.90;99.90
51035;DHT22;37062;52.546;13.230;2023-03-26T15:04:18;14.00;99.90
51035;DHT22;37062;52.546;13.230;2023-03-26T15:07:19;14.00;99.90
51035;DHT22;37062;52.546;13.230;2023-03-26T15:13:34;14.20;99.90
51035;DHT22;37062;52.546;13.230;2023-03-26T15:16:30;14.00;99.90
51035;DHT22;37062;52.546;13.230;2023-03-26T15:19:31;14.00;99.90
51035;DHT22;37062;52.546;13.230;2023-03-26T15:22:45;14.00;99.90
51035;DHT22;37062;52.546;13.230;2023-03-26T15:29:02;13.80;99.90
51035;DHT22;37062;52.546;13.230;2023-03-26T15:31:55;13.70;99.90
51035;DHT22;37062;52.546;13.230;2023-03-26T15:34:55;13.70;99.90
51035;DHT22;37062;52.546;13.230;2023-03-26T15:40:49;13.60;99.90
51035;DHT22;37062;52.546;13.230;2023-03-26T15:43:27;13.50;99.90
51035;DHT22;37062;52.546;13.230;2023-03-26T15:46:24;13.30;99.90
51035;DHT22;37062;52.546;13.230;2023-03-26T15:49:01;13.10;99.90
51035;DHT22;37062;52.546;13.230;2023-03-26T15:51:44;13.10;99.90
51035;DHT22;37062;52.546;13.230;2023-03-26T15:54:22;13.10;99.90
51035;DHT22;37062;52.546;13.230;2023-03-26T15:57:07;13.10;99.90
51035;DHT22;37062;52.546;13.230;2023-03-26T15:59:57;13.10;99.90
51035;DHT22;37062;52.546;13.230;2023-03-26T16:02:44;13.10;99.90
51035;DHT22;37062;52.546;13.230;2023-03-26T16:05:29;13.00;99.90
51035;DHT22;37062;52.546;13.230;2023-03-26T16:08:06;13.00;99.90
51035;DHT22;37062;52.546;13.230;2023-03-26T16:10:41;13.00;99.90
51035;DHT22;37062;52.546;13.230;2023-03-26T16:13:31;13.00;99.90
51035;DHT22;37062;52.546;13.230;2023-03-26T16:16:23;12.90;99.90
51035;DHT22;37062;52.546;13.230;2023-03-26T16:18:58;12.80;99.90
51035;DHT22;37062;52.546;13.230;2023-03-26T16:21:53;12.80;99.90
51035;DHT22;37062;52.546;13.230;2023-03-26T16:24:26;12.80;99.90
51035;DHT22;37062;52.546;13.230;2023-03-26T16:30:15;12.90;99.90
51035;DHT22;37062;52.546;13.230;2023-03-26T16:32:54;12.80;99.90
51035;DHT22;37062;52.546;13.230;2023-03-26T16:35:41;12.80;99.90
51035;DHT22;37062;52.546;13.230;2023-03-26T16:38:15;12.80;99.90
51035;DHT22;37062;52.546;13.230;2023-03-26T16:40:50;12.80;99.90
51035;DHT22;37062;52.546;13.230;2023-03-26T16:43:42;12.80;99.90
51035;DHT22;37062;52.546;13.230;2023-03-26T16:46:36;12.80;99.90
51035;DHT22;37062;52.546;13.230;2023-03-26T16:49:18;12.80;99.90
51035;DHT22;37062;52.546;13.230;2023-03-26T16:52:08;12.80;99.90
51035;DHT22;37062;52.546;13.230;2023-03-26T16:54:46;12.80;99.90
51035;DHT22;37062;52.546;13.230;2023-03-26T16:57:25;12.80;99.90
51035;DHT22;37062;52.546;13.230;2023-03-26T17:03:14;12.70;99.90
51035;DHT22;37062;52.546;13.230;2023-03-26T17:05:56;12.60;99.90
51035;DHT22;37062;52.546;13.230;2023-03-26T17:08:35;12.60;99.90
51035;DHT22;37062;52.546;13.230;2023-03-26T17:11:14;12.60;99.90
51035;DHT22;37062;52.546;13.230;2023-03-26T17:13:52;12.60;99.90
51035;DHT22;37062;52.546;13.230;2023-03-26T17:16:32;12.60;99.90
51035;DHT22;37062;52.546;13.230;2023-03-26T17:19:07;12.40;99.90
51035;DHT22;37062;52.546;13.230;2023-03-26T17:21:51;12.30;99.90
51035;DHT22;37062;52.546;13.230;2023-03-26T17:24:33;12.30;99.90
51035;DHT22;37062;52.546;13.230;2023-03-26T17:27:26;12.10;99.90
51035;DHT22;37062;52.546;13.230;2023-03-26T17:30:04;12.00;99.90
51035;DHT22;37062;52.546;13.230;2023-03-26T17:32:54;12.00;99.90
51035;DHT22;37062;52.546;13.230;2023-03-26T17:35:39;12.00;99.90